Time;durP1;ratioP1;P1;durP2;ratioP2;P2;SDS_P1;SDS_P2;PMS_P1;PMS_P2;Temp;Humidity;BMP_temperature;BMP_pressure;BME280_temperature;BME280_humidity;BME280_pressure;Samples;Min_cycle;Max_cycle;Signal;HPM_P1;HPM_P2
2021/10/17 00:00:16;;;;;;;0.10;0.10;;;;;;;8.73;56.71;98805.81;115495;1213;137857;-85
2021/10/17 00:02:43;;;;;;;0.10;0.10;;;;;;;8.72;57.04;98803.25;115459;1217;137534;-84
2021/10/17 00:05:10;;;;;;;0.10;0.10;;;;;;;8.69;56.86;98806.19;115473;1215;137293;-85
2021/10/17 00:07:36;;;;;;;0.00;0.00;;;;;;;8.65;56.97;98807.69;115599;1216;22322;-85
2021/10/17 00:10:05;;;;;;;0.10;0.10;;;;;;;8.59;57.19;98808.81;115456;1216;136984;-85
2021/10/17 00:12:30;;;;;;;0.10;0.10;;;;;;;8.56;56.97;98812.88;115475;1216;137601;-85
2021/10/17 00:14:56;;;;;;;0.00;0.00;;;;;;;8.53;56.94;98811.25;115458;1217;137342;-84
2021/10/17 00:17:22;;;;;;;0.10;0.10;;;;;;;8.51;57.17;98812.77;115519;1211;137111;-84
2021/10/17 00:19:47;;;;;;;0.00;0.00;;;;;;;8.46;57.58;98813.23;115594;1216;22292;-84
2021/10/17 00:22:13;;;;;;;0.10;0.10;;;;;;;8.41;57.76;98812.16;115471;1216;136815;-84
2021/10/17 00:24:39;;;;;;;0.10;0.10;;;;;;;8.35;57.92;98813.59;115548;1213;137374;-84
2021/10/17 00:27:04;;;;;;;0.10;0.10;;;;;;;8.30;57.69;98816.15;115572;1215;137120;-84
2021/10/17 00:29:30;;;;;;;0.00;0.00;;;;;;;8.24;57.95;98811.08;115624;1213;137932;-84
2021/10/17 00:31:55;;;;;;;0.10;0.10;;;;;;;8.17;58.08;98818.54;115535;1215;137237;-84
2021/10/17 00:34:21;;;;;;;0.10;0.10;;;;;;;8.11;58.54;98814.67;115615;1215;23115;-84
2021/10/17 00:36:47;;;;;;;0.10;0.10;;;;;;;8.06;58.17;98821.15;115630;1214;136994;-84
2021/10/17 00:39:13;;;;;;;0.00;0.00;;;;;;;8.00;58.37;98815.36;115554;1210;137503;-85
2021/10/17 00:41:40;;;;;;;0.00;0.00;;;;;;;7.95;58.86;98821.23;115571;1211;138039;-85
2021/10/17 00:44:06;;;;;;;0.00;0.00;;;;;;;7.87;58.84;98822.92;115518;1215;137352;-85
2021/10/17 00:46:32;;;;;;;0.10;0.10;;;;;;;7.80;58.92;98820.49;115624;1212;22304;-85
2021/10/17 00:48:57;;;;;;;0.10;0.10;;;;;;;7.75;58.84;98813.20;115546;1211;136970;-84
2021/10/17 00:51:23;;;;;;;0.00;0.00;;;;;;;7.71;59.12;98813.07;115482;1215;137115;-84
2021/10/17 00:53:49;;;;;;;0.00;0.00;;;;;;;7.66;59.18;98815.09;115496;1216;137298;-84
2021/10/17 00:56:14;;;;;;;0.00;0.00;;;;;;;7.59;58.92;98815.72;115493;1212;137352;-84
2021/10/17 00:58:40;;;;;;;0.00;0.00;;;;;;;7.54;59.20;98816.03;115608;1216;22238;-84
2021/10/17 01:01:05;;;;;;;0.10;0.10;;;;;;;7.48;59.59;98813.59;115516;1212;137151;-85
2021/10/17 01:03:31;;;;;;;0.10;0.10;;;;;;;7.43;59.52;98815.66;115480;1216;137184;-85
2021/10/17 01:05:57;;;;;;;0.10;0.10;;;;;;;7.38;59.59;98821.00;115562;1210;137550;-83
2021/10/17 01:08:23;;;;;;;0.10;0.10;;;;;;;7.38;59.72;98814.78;115470;1215;138449;-84
2021/10/17 01:10:54;;;;;;;0.00;0.00;;;;;;;7.42;59.98;98815.56;115658;1215;22289;-84
2021/10/17 01:13:21;;;;;;;0.00;0.00;;;;;;;7.46;60.42;98810.73;115663;1215;22327;-84
2021/10/17 01:15:52;;;;;;;0.10;0.10;;;;;;;7.50;60.47;98811.11;115475;1215;137050;-84
2021/10/17 01:18:18;;;;;;;0.10;0.10;;;;;;;7.54;60.43;98812.69;115475;1211;137304;-84
2021/10/17 01:20:44;;;;;;;0.10;0.10;;;;;;;7.54;60.28;98812.86;115490;1213;137213;-84
2021/10/17 01:23:09;;;;;;;0.00;0.00;;;;;;;7.53;60.28;98813.66;115532;1215;137666;-84
2021/10/17 01:25:35;;;;;;;0.10;0.10;;;;;;;7.51;60.33;98816.09;115653;1212;22308;-84
2021/10/17 01:28:00;;;;;;;0.20;0.20;;;;;;;7.50;59.98;98812.77;115559;1212;136970;-83
2021/10/17 01:30:31;;;;;;;0.10;0.10;;;;;;;7.47;60.27;98810.98;115651;1215;137096;-85
2021/10/17 01:32:57;;;;;;;0.10;0.10;;;;;;;7.44;60.07;98812.17;115476;1215;137080;-85
2021/10/17 01:35:23;;;;;;;0.10;0.10;;;;;;;7.38;60.45;98822.08;115561;1212;137288;-85
2021/10/17 01:37:48;;;;;;;0.00;0.00;;;;;;;7.33;60.03;98820.17;115664;1215;22449;-85
2021/10/17 01:40:14;;;;;;;0.00;0.00;;;;;;;7.27;60.00;98822.19;115554;1215;137236;-85
2021/10/17 01:42:40;;;;;;;0.10;0.10;;;;;;;7.20;60.43;98817.67;115557;1215;136973;-85
2021/10/17 01:45:06;;;;;;;0.00;0.00;;;;;;;7.14;60.11;98821.40;115551;1215;137022;-84
2021/10/17 01:47:32;;;;;;;0.00;0.00;;;;;;;7.09;60.36;98819.59;115520;1215;137344;-84
2021/10/17 01:49:57;;;;;;;0.10;0.10;;;;;;;7.04;60.51;98823.52;115533;1215;137591;-84
2021/10/17 01:52:23;;;;;;;0.10;0.10;;;;;;;6.97;60.69;98818.30;115593;1216;22157;-85
2021/10/17 01:54:49;;;;;;;0.00;0.00;;;;;;;6.91;60.90;98824.60;115435;1217;137184;-85
2021/10/17 01:57:14;;;;;;;0.00;0.00;;;;;;;6.85;61.09;98823.70;115490;1214;137057;-84
2021/10/17 01:59:40;;;;;;;0.10;0.10;;;;;;;6.80;60.96;98823.70;115429;1217;137174;-84
2021/10/17 02:02:05;;;;;;;0.10;0.10;;;;;;;6.77;61.14;98817.21;115461;1216;137101;-83
2021/10/17 02:04:31;;;;;;;0.00;0.00;;;;;;;6.71;61.10;98820.50;115614;1217;23021;-83
2021/10/17 02:06:56;;;;;;;0.10;0.10;;;;;;;6.66;61.14;98814.52;115508;1215;136828;-83
2021/10/17 02:09:22;;;;;;;0.00;0.00;;;;;;;6.61;61.43;98812.60;115543;1215;137180;-83
2021/10/17 02:11:47;;;;;;;0.00;0.00;;;;;;;6.57;61.48;98810.00;115544;1215;137137;-82
2021/10/17 02:14:13;;;;;;;0.00;0.00;;;;;;;6.52;61.38;98811.77;115524;1216;137158;-82
2021/10/17 02:16:38;;;;;;;0.00;0.00;;;;;;;6.50;61.35;98812.70;115565;1214;22283;-83
2021/10/17 02:19:04;;;;;;;0.00;0.00;;;;;;;6.52;61.67;98815.89;115465;1217;137730;-83
2021/10/17 02:21:29;;;;;;;0.00;0.00;;;;;;;6.56;61.99;98811.82;115499;1216;137995;-83
2021/10/17 02:23:55;;;;;;;0.00;0.00;;;;;;;6.61;62.20;98815.17;115515;1212;137496;-83
2021/10/17 02:26:20;;;;;;;0.10;0.10;;;;;;;6.64;62.21;98812.98;115493;1214;137700;-83
2021/10/17 02:28:46;;;;;;;0.10;0.10;;;;;;;6.68;62.18;98808.84;115664;1215;22997;-83
2021/10/17 02:31:12;;;;;;;0.10;0.10;;;;;;;6.70;62.15;98806.64;115533;1215;137155;-83
2021/10/17 02:33:39;;;;;;;0.00;0.00;;;;;;;6.72;62.23;98807.75;115637;1215;137133;-83
2021/10/17 02:36:05;;;;;;;0.00;0.00;;;;;;;6.72;62.09;98807.59;115569;1200;137209;-83
2021/10/17 02:38:30;;;;;;;0.00;0.00;;;;;;;6.70;62.02;98806.85;115517;1215;137330;-83
2021/10/17 02:40:56;;;;;;;0.00;0.00;;;;;;;6.67;61.85;98808.64;115496;1211;137162;-83
2021/10/17 02:43:21;;;;;;;0.10;0.10;;;;;;;6.63;61.94;98804.89;115673;1212;22255;-83
2021/10/17 02:45:47;;;;;;;0.00;0.00;;;;;;;6.61;61.79;98801.75;115547;1215;136905;-83
2021/10/17 02:48:12;;;;;;;0.00;0.00;;;;;;;6.59;61.73;98803.79;115548;1215;137293;-83
2021/10/17 02:50:38;;;;;;;0.10;0.10;;;;;;;6.56;61.92;98804.97;115560;1215;137419;-85
2021/10/17 02:53:04;;;;;;;0.00;0.00;;;;;;;6.51;61.72;98807.55;115496;1215;137126;-85
2021/10/17 02:55:29;;;;;;;0.10;0.10;;;;;;;6.46;61.87;98807.88;115614;1216;22129;-84
2021/10/17 02:57:55;;;;;;;0.10;0.10;;;;;;;6.41;61.88;98808.05;115513;1216;136924;-85
2021/10/17 03:00:20;;;;;;;0.00;0.00;;;;;;;6.36;61.77;98813.74;115539;1215;137162;-86
2021/10/17 03:02:46;;;;;;;0.10;0.10;;;;;;;6.30;62.15;98813.69;115533;1215;137250;-85
2021/10/17 03:05:13;;;;;;;0.00;0.00;;;;;;;6.25;62.31;98808.35;115529;1216;137812;-85
2021/10/17 03:07:39;;;;;;;0.00;0.00;;;;;;;6.20;62.51;98809.55;115582;1216;22192;-85
2021/10/17 03:10:06;;;;;;;0.10;0.10;;;;;;;6.14;62.80;98816.02;115499;1212;137260;-85
2021/10/17 03:12:31;;;;;;;0.10;0.10;;;;;;;6.10;62.88;98820.45;115517;1216;137133;-84
2021/10/17 03:14:57;;;;;;;0.10;0.10;;;;;;;6.06;62.84;98819.02;115547;1216;137172;-84
2021/10/17 03:17:22;;;;;;;0.10;0.10;;;;;;;6.01;62.82;98815.77;115484;1212;137493;-84
2021/10/17 03:19:49;;;;;;;0.00;0.00;;;;;;;5.98;62.66;98819.66;115676;1216;22354;-84
2021/10/17 03:22:15;;;;;;;0.00;0.00;;;;;;;5.97;62.85;98825.52;115560;1216;137098;-84
2021/10/17 03:24:40;;;;;;;0.00;0.00;;;;;;;6.00;62.91;98824.41;115506;1213;138222;-83
2021/10/17 03:27:06;;;;;;;0.10;0.10;;;;;;;6.03;63.42;98823.67;115659;1215;138020;-84
2021/10/17 03:29:32;;;;;;;0.10;0.10;;;;;;;6.06;63.64;98826.23;115521;1215;138057;-85
2021/10/17 03:31:57;;;;;;;0.10;0.10;;;;;;;6.08;63.41;98830.14;115627;1215;137331;-82
2021/10/17 03:34:23;;;;;;;0.00;0.00;;;;;;;6.13;63.45;98829.17;115684;1215;22289;-85
2021/10/17 03:36:48;;;;;;;0.10;0.10;;;;;;;6.17;63.29;98834.23;115517;1212;137242;-85
2021/10/17 03:39:14;;;;;;;0.00;0.00;;;;;;;6.18;63.21;98830.52;115521;1215;137204;-85
2021/10/17 03:41:39;;;;;;;0.10;0.10;;;;;;;6.17;63.15;98831.57;115535;1215;137152;-85
2021/10/17 03:44:05;;;;;;;0.10;0.10;;;;;;;6.14;63.22;98828.27;115570;1214;137206;-85
2021/10/17 03:46:31;;;;;;;0.00;0.00;;;;;;;6.11;63.07;98831.10;115635;1215;23011;-84
2021/10/17 03:48:56;;;;;;;0.10;0.10;;;;;;;6.09;63.13;98834.19;115536;1215;136969;-83
2021/10/17 03:51:22;;;;;;;0.10;0.10;;;;;;;6.05;63.41;98835.33;115623;1213;136944;-84
2021/10/17 03:53:47;;;;;;;0.00;0.00;;;;;;;6.02;63.26;98833.73;115484;1216;137007;-84
2021/10/17 03:56:13;;;;;;;0.00;0.00;;;;;;;5.99;63.65;98833.61;115584;1214;137068;-83
2021/10/17 03:58:39;;;;;;;0.10;0.10;;;;;;;5.96;63.54;98830.30;115612;1212;22292;-83
2021/10/17 04:01:05;;;;;;;0.00;0.00;;;;;;;5.92;63.46;98832.30;115502;1216;137721;-83
2021/10/17 04:03:30;;;;;;;0.10;0.10;;;;;;;5.87;63.81;98834.48;115518;1216;137241;-83
2021/10/17 04:05:56;;;;;;;0.00;0.00;;;;;;;5.85;63.59;98835.83;115558;1212;137020;-84
2021/10/17 04:08:21;;;;;;;0.00;0.00;;;;;;;5.81;63.81;98837.16;115499;1216;137246;-84
2021/10/17 04:10:47;;;;;;;0.00;0.00;;;;;;;5.77;63.60;98836.79;115593;1216;22367;-84
2021/10/17 04:13:13;;;;;;;0.00;0.00;;;;;;;5.73;63.76;98841.63;115572;1216;136695;-84
2021/10/17 04:15:38;;;;;;;0.00;0.00;;;;;;;5.70;64.01;98843.45;115521;1216;137143;-85
2021/10/17 04:18:05;;;;;;;0.00;0.00;;;;;;;5.67;63.98;98838.64;115503;1213;137020;-85
2021/10/17 04:20:31;;;;;;;0.00;0.00;;;;;;;5.66;63.75;98840.47;115563;1215;137586;-85
2021/10/17 04:22:57;;;;;;;0.10;0.10;;;;;;;5.68;63.91;98838.48;115501;1216;137920;-85
2021/10/17 04:25:22;;;;;;;0.00;0.00;;;;;;;5.72;64.20;98841.48;115626;1214;22289;-85
2021/10/17 04:27:48;;;;;;;0.10;0.10;;;;;;;5.76;64.55;98840.36;115556;1215;137702;-84
2021/10/17 04:30:14;;;;;;;0.10;0.10;;;;;;;5.82;64.57;98841.59;115506;1213;137190;-84
2021/10/17 04:32:40;;;;;;;0.10;0.10;;;;;;;5.87;64.55;98842.14;115531;1215;137641;-85
2021/10/17 04:35:08;;;;;;;0.10;0.10;;;;;;;5.90;64.34;98840.54;115535;1208;138155;-85
2021/10/17 04:37:34;;;;;;;0.10;0.10;;;;;;;5.91;64.43;98843.27;115646;1215;22270;-85
2021/10/17 04:40:00;;;;;;;0.10;0.10;;;;;;;5.92;64.23;98840.17;115536;1215;137163;-85
2021/10/17 04:42:26;;;;;;;0.00;0.00;;;;;;;5.91;63.99;98844.48;115529;1215;137311;-85
2021/10/17 04:44:51;;;;;;;0.00;0.00;;;;;;;5.89;64.15;98841.86;115547;1215;137449;-85
2021/10/17 04:47:17;;;;;;;0.10;0.10;;;;;;;5.86;64.13;98842.09;115545;1212;137492;-84
2021/10/17 04:49:43;;;;;;;0.10;0.10;;;;;;;5.83;64.23;98848.91;115620;1215;23101;-84
2021/10/17 04:52:08;;;;;;;0.00;0.00;;;;;;;5.79;64.24;98846.15;115500;1216;137396;-84
2021/10/17 04:54:35;;;;;;;0.00;0.00;;;;;;;5.74;64.24;98847.52;115512;1216;137345;-83
2021/10/17 04:57:00;;;;;;;0.10;0.10;;;;;;;5.71;64.04;98848.63;115510;1216;137308;-83
2021/10/17 04:59:25;;;;;;;0.10;0.10;;;;;;;5.66;64.15;98851.52;115486;1216;137374;-83
2021/10/17 05:01:51;;;;;;;0.10;0.10;;;;;;;5.62;64.29;98851.30;115604;1216;22189;-85
2021/10/17 05:04:17;;;;;;;0.00;0.00;;;;;;;5.58;64.38;98851.45;115505;1216;136788;-85
2021/10/17 05:06:43;;;;;;;0.00;0.00;;;;;;;5.55;64.46;98854.01;115466;1216;137534;-84
2021/10/17 05:09:08;;;;;;;0.00;0.00;;;;;;;5.51;64.57;98856.78;115466;1217;137250;-84
2021/10/17 05:11:34;;;;;;;0.10;0.10;;;;;;;5.48;64.59;98858.20;115519;1216;137186;-84
2021/10/17 05:13:59;;;;;;;0.00;0.00;;;;;;;5.45;64.56;98854.09;115480;1216;137713;-84
2021/10/17 05:16:25;;;;;;;0.00;0.00;;;;;;;5.46;64.62;98851.52;115576;1217;22363;-84
2021/10/17 05:18:51;;;;;;;0.00;0.00;;;;;;;5.49;64.74;98857.79;115480;1216;138136;-84
2021/10/17 05:21:17;;;;;;;0.00;0.00;;;;;;;5.53;65.09;98854.70;115463;1217;137998;-84
2021/10/17 05:23:42;;;;;;;0.10;0.10;;;;;;;5.59;65.23;98853.32;115374;1217;137523;-85
2021/10/17 05:26:08;;;;;;;0.10;0.10;;;;;;;5.65;65.35;98854.77;115484;1216;137371;-84
2021/10/17 05:28:33;;;;;;;0.10;0.10;;;;;;;5.69;65.27;98855.80;115580;1216;22205;-84
2021/10/17 05:31:03;;;;;;;0.10;0.10;;;;;;;5.74;65.23;98857.09;115583;1216;137829;-84
2021/10/17 05:33:30;;;;;;;0.00;0.00;;;;;;;5.76;65.44;98861.89;115551;1216;137261;-84
2021/10/17 05:35:56;;;;;;;0.00;0.00;;;;;;;5.78;65.10;98859.83;115414;1216;137215;-84
2021/10/17 05:38:22;;;;;;;0.00;0.00;;;;;;;5.80;65.15;98864.15;115474;1216;137292;-84
2021/10/17 05:40:48;;;;;;;0.20;0.20;;;;;;;5.80;64.90;98867.89;115611;1216;22239;-84
2021/10/17 05:43:13;;;;;;;0.10;0.10;;;;;;;5.81;65.12;98868.05;115484;1216;136828;-84
2021/10/17 05:45:39;;;;;;;0.00;0.00;;;;;;;5.81;65.10;98873.13;115500;1216;137231;-84
2021/10/17 05:48:04;;;;;;;0.10;0.10;;;;;;;5.80;64.92;98873.02;115551;1216;137213;-84
2021/10/17 05:54:17;;;;;;;0.00;0.00;;;;;;;5.78;65.04;98872.21;115194;1220;137245;-84
2021/10/17 05:56:44;;;;;;;0.10;0.10;;;;;;;5.77;65.11;98872.86;115353;1217;137328;-86
2021/10/17 05:59:10;;;;;;;0.10;0.10;;;;;;;5.78;65.31;98874.10;115484;1217;137248;-85
2021/10/17 06:01:36;;;;;;;0.00;0.00;;;;;;;5.79;65.50;98880.55;115553;1217;22271;-85
2021/10/17 06:04:03;;;;;;;0.00;0.00;;;;;;;5.80;65.47;98880.88;115469;1217;137226;-84
2021/10/17 06:06:28;;;;;;;0.00;0.00;;;;;;;5.82;65.39;98878.09;115384;1216;138284;-84
2021/10/17 06:15:40;;;;;;;0.00;0.00;;;;;;;6.07;65.82;98884.56;115201;1217;138017;-84
2021/10/17 06:18:06;;;;;;;0.10;0.10;;;;;;;6.19;65.81;98882.48;115499;1216;137848;-84
2021/10/17 06:20:31;;;;;;;0.10;0.10;;;;;;;6.31;65.95;98884.17;115480;1216;137598;-84
2021/10/17 06:22:57;;;;;;;0.00;0.00;;;;;;;6.45;65.91;98881.77;115458;1217;138421;-85
2021/10/17 06:25:22;;;;;;;0.10;0.10;;;;;;;6.58;65.53;98885.55;115422;1212;23053;-85
2021/10/17 06:31:20;;;;;;;0.10;0.10;;;;;;;6.88;65.55;98887.46;115484;1214;153070;-85
2021/10/17 06:33:45;;;;;;;0.10;0.10;;;;;;;6.97;65.21;98890.86;115441;1212;137011;-85
2021/10/17 06:36:11;;;;;;;0.10;0.10;;;;;;;7.05;65.10;98893.89;115491;1213;136991;-85
2021/10/17 06:38:36;;;;;;;0.10;0.10;;;;;;;7.13;64.95;98898.89;115437;1216;137406;-85
2021/10/17 06:41:02;;;;;;;0.10;0.10;;;;;;;7.20;64.18;98902.08;115424;1217;138739;-84
2021/10/17 06:43:28;;;;;;;0.10;0.10;;;;;;;7.29;64.44;98895.13;115542;1202;22382;-84
2021/10/17 06:45:53;;;;;;;0.10;0.10;;;;;;;7.37;64.32;98904.20;115463;1217;137435;-85
2021/10/17 06:48:19;;;;;;;0.10;0.10;;;;;;;7.46;64.00;98904.11;115456;1216;137101;-85
2021/10/17 06:50:44;;;;;;;0.10;0.10;;;;;;;7.54;64.08;98903.81;115454;1217;137657;-86
2021/10/17 06:53:10;;;;;;;0.10;0.10;;;;;;;7.63;63.69;98902.20;115345;1217;137253;-84
2021/10/17 06:55:36;;;;;;;0.10;0.10;;;;;;;7.73;63.99;98910.35;115474;1216;22334;-84
2021/10/17 06:58:02;;;;;;;0.10;0.10;;;;;;;7.81;63.77;98912.60;115471;1203;136809;-84
2021/10/17 07:00:27;;;;;;;0.00;0.00;;;;;;;7.92;63.59;98914.05;115442;1215;137582;-85
2021/10/17 07:02:53;;;;;;;0.10;0.10;;;;;;;8.01;63.17;98911.83;115440;1216;137373;-86
2021/10/17 07:05:21;;;;;;;0.10;0.10;;;;;;;8.08;63.18;98915.43;115460;1216;137185;-87
2021/10/17 07:07:46;;;;;;;0.10;0.10;;;;;;;8.18;63.08;98922.34;115604;1215;22340;-85
2021/10/17 07:10:11;;;;;;;0.10;0.10;;;;;;;8.28;62.75;98923.70;115560;1215;136717;-84
2021/10/17 07:12:37;;;;;;;0.10;0.10;;;;;;;8.38;62.36;98921.55;115459;1203;137105;-85
2021/10/17 07:15:04;;;;;;;0.10;0.10;;;;;;;8.48;62.05;98923.52;115615;1216;137002;-85
2021/10/17 07:17:29;;;;;;;0.10;0.10;;;;;;;8.58;61.73;98923.10;115464;1216;137161;-86
2021/10/17 07:19:55;;;;;;;0.10;0.10;;;;;;;8.69;61.75;98927.25;115644;1216;22273;-85
2021/10/17 07:22:20;;;;;;;0.10;0.10;;;;;;;8.80;61.64;98924.56;115612;1216;22144;-85
2021/10/17 07:24:46;;;;;;;0.10;0.10;;;;;;;8.91;61.10;98929.14;115514;1216;137043;-85
2021/10/17 07:27:11;;;;;;;0.10;0.10;;;;;;;9.01;60.47;98927.30;115556;1215;137005;-86
2021/10/17 07:29:37;;;;;;;0.10;0.10;;;;;;;9.12;59.53;98928.33;115672;1213;137159;-85
2021/10/17 07:32:03;;;;;;;0.10;0.10;;;;;;;9.23;59.70;98927.43;115667;1215;137234;-85
2021/10/17 07:34:29;;;;;;;0.10;0.10;;;;;;;9.35;59.27;98921.06;115661;1215;22272;-86
2021/10/17 07:36:55;;;;;;;0.10;0.10;;;;;;;9.44;56.91;98920.85;115535;1215;136939;-85
2021/10/17 07:39:20;;;;;;;0.10;0.10;;;;;;;9.54;57.45;98927.02;115556;1215;137323;-85
2021/10/17 07:41:48;;;;;;;0.10;0.10;;;;;;;9.65;57.61;98925.69;115565;1215;137312;-86
2021/10/17 07:44:15;;;;;;;0.10;0.10;;;;;;;9.76;56.66;98928.34;115476;1213;137238;-86
2021/10/17 07:46:40;;;;;;;0.10;0.10;;;;;;;9.86;55.21;98929.32;115583;1216;22249;-85
2021/10/17 07:49:06;;;;;;;0.10;0.10;;;;;;;9.93;53.77;98926.75;115511;1214;137272;-86
2021/10/17 07:51:31;;;;;;;0.10;0.10;;;;;;;10.00;53.38;98928.58;115522;1216;137316;-86
2021/10/17 07:53:57;;;;;;;0.10;0.10;;;;;;;10.11;53.00;98930.26;115511;1211;137585;-86
2021/10/17 07:56:23;;;;;;;0.10;0.10;;;;;;;10.21;52.56;98927.48;115450;1212;138271;-88
2021/10/17 07:58:50;;;;;;;0.10;0.10;;;;;;;10.31;52.99;98925.78;115592;1216;22152;-84
2021/10/17 08:01:16;;;;;;;0.20;0.20;;;;;;;10.43;52.88;98927.15;115591;1216;137126;-85
2021/10/17 08:03:42;;;;;;;0.10;0.10;;;;;;;10.54;52.22;98930.83;115497;1216;137613;-84
2021/10/17 08:06:08;;;;;;;0.10;0.10;;;;;;;10.65;50.94;98936.84;115504;1216;137550;-84
2021/10/17 08:08:34;;;;;;;0.10;0.10;;;;;;;10.73;50.41;98932.99;115507;1217;137577;-83
2021/10/17 08:11:03;;;;;;;0.10;0.10;;;;;;;10.82;50.24;98938.27;115470;1209;137620;-86
2021/10/17 08:13:29;;;;;;;0.20;0.20;;;;;;;10.94;50.91;98939.30;115596;1217;22304;-86
2021/10/17 08:15:56;;;;;;;0.10;0.10;;;;;;;11.06;49.33;98937.10;115477;1213;137415;-86
2021/10/17 08:18:24;;;;;;;0.10;0.10;;;;;;;11.15;49.21;98934.11;115528;1216;137673;-85
2021/10/17 08:20:50;;;;;;;0.10;0.10;;;;;;;11.28;49.66;98936.92;115441;1217;137593;-85
2021/10/17 08:23:16;;;;;;;0.10;0.10;;;;;;;11.43;48.99;98934.16;115463;1209;137595;-86
2021/10/17 08:25:42;;;;;;;0.10;0.10;;;;;;;11.55;48.67;98934.61;115626;1216;23009;-86
2021/10/17 08:28:11;;;;;;;0.20;0.20;;;;;;;11.65;47.91;98936.77;115501;1209;137356;-86
2021/10/17 08:30:37;;;;;;;0.10;0.10;;;;;;;11.75;48.15;98939.19;115510;1216;137394;-85
2021/10/17 08:33:03;;;;;;;0.10;0.10;;;;;;;11.90;47.98;98940.48;115492;1213;137489;-84
2021/10/17 08:35:28;;;;;;;0.10;0.10;;;;;;;12.03;47.51;98940.08;115373;1217;137530;-85
2021/10/17 08:37:54;;;;;;;0.20;0.20;;;;;;;12.15;46.73;98939.38;115590;1217;22326;-85
2021/10/17 08:40:19;;;;;;;0.10;0.10;;;;;;;12.27;46.99;98940.27;115507;1217;137187;-85
2021/10/17 08:42:45;;;;;;;0.10;0.10;;;;;;;12.35;45.89;98939.23;115499;1216;137454;-84
2021/10/17 08:45:11;;;;;;;0.10;0.10;;;;;;;12.42;46.32;98941.44;115465;1213;137383;-84
2021/10/17 08:47:37;;;;;;;0.20;0.20;;;;;;;12.52;45.84;98947.67;115490;1216;137574;-84
2021/10/17 08:50:06;;;;;;;0.20;0.20;;;;;;;12.58;44.59;98944.95;115473;1216;138069;-84
2021/10/17 08:52:32;;;;;;;0.10;0.10;;;;;;;12.64;44.35;98944.95;115622;1216;22348;-85
2021/10/17 08:54:58;;;;;;;0.10;0.10;;;;;;;12.75;44.50;98937.80;115481;1213;137212;-84
2021/10/17 08:57:24;;;;;;;0.20;0.20;;;;;;;12.88;44.76;98939.05;115511;1216;137434;-84
2021/10/17 08:59:51;;;;;;;0.10;0.10;;;;;;;13.02;45.19;98940.50;115497;1212;137389;-85
2021/10/17 09:02:23;;;;;;;0.20;0.20;;;;;;;13.11;44.12;98943.83;115494;1213;137501;-84
2021/10/17 09:05:07;;;;;;;0.20;0.20;;;;;;;13.25;44.96;98943.92;115586;1209;22411;-84
2021/10/17 09:07:33;;;;;;;0.20;0.20;;;;;;;13.37;43.84;98943.83;115445;1213;22330;-85
2021/10/17 09:10:13;;;;;;;0.10;0.10;;;;;;;13.46;43.92;98936.53;115430;1209;137297;-84
2021/10/17 09:12:41;;;;;;;0.10;0.10;;;;;;;13.63;43.85;98942.36;115502;1216;137311;-84
2021/10/17 09:15:36;;;;;;;0.20;0.20;;;;;;;13.73;43.76;98946.88;115494;1216;138158;-84
2021/10/17 09:18:08;;;;;;;0.40;0.40;;;;;;;13.82;43.37;98944.30;115465;1214;137709;-83
2021/10/17 09:20:49;;;;;;;0.20;0.20;;;;;;;13.86;42.39;98948.39;115494;1212;137717;-84
2021/10/17 09:23:36;;;;;;;0.20;0.20;;;;;;;13.93;42.79;98947.61;115555;1213;137721;-84
2021/10/17 09:26:10;;;;;;;0.20;0.20;;;;;;;14.05;42.71;98943.92;115597;1215;137764;-85
2021/10/17 09:28:49;;;;;;;0.20;0.20;;;;;;;14.18;42.45;98946.05;115644;1215;22291;-84
2021/10/17 09:33:04;;;;;;;0.20;0.20;;;;;;;14.29;42.08;98945.98;115631;1213;137171;-84
2021/10/17 09:35:55;;;;;;;;;;;;;;;;;;;;;
2021/10/17 09:38:33;;;;;;;0.10;0.10;;;;;;;14.54;40.75;98950.52;115179;1219;137898;-84
2021/10/17 09:41:28;;;;;;;0.20;0.20;;;;;;;14.69;40.89;98951.55;115240;1218;137903;-84
2021/10/17 09:43:58;;;;;;;0.20;0.20;;;;;;;14.89;40.71;98942.48;115347;1218;22327;-84
2021/10/17 09:46:24;;;;;;;0.20;0.20;;;;;;;14.99;39.55;98939.80;115441;1213;22288;-83
2021/10/17 09:48:50;;;;;;;0.20;0.20;;;;;;;15.13;40.03;98942.36;115314;1212;137333;-84
2021/10/17 09:51:21;;;;;;;0.30;0.30;;;;;;;15.32;40.41;98937.95;115258;1216;137587;-84
2021/10/17 09:53:52;;;;;;;0.20;0.20;;;;;;;15.53;40.10;98938.35;115310;1213;137555;-85
2021/10/17 09:56:35;;;;;;;0.20;0.20;;;;;;;15.73;39.97;98944.71;115245;1218;138097;-83
2021/10/17 09:59:12;;;;;;;0.20;0.20;;;;;;;15.92;38.99;98943.73;115249;1203;137968;-83
2021/10/17 10:01:42;;;;;;;0.10;0.10;;;;;;;16.07;39.67;98942.28;115336;1216;23294;-84
2021/10/17 10:04:12;;;;;;;0.20;0.20;;;;;;;16.24;38.81;98944.31;115239;1216;137937;-83
2021/10/17 10:06:38;;;;;;;0.20;0.20;;;;;;;16.34;38.36;98941.48;115298;1213;138030;-83
2021/10/17 10:09:08;;;;;;;0.30;0.30;;;;;;;16.39;38.05;98938.02;115351;1216;137386;-83
2021/10/17 10:11:37;;;;;;;0.20;0.20;;;;;;;16.40;37.62;98934.86;115440;1212;137725;-83
2021/10/17 10:14:04;;;;;;;0.20;0.20;;;;;;;16.49;37.55;98937.59;115449;1213;137574;-83
2021/10/17 10:16:31;;;;;;;0.30;0.30;;;;;;;16.57;37.62;98935.77;115664;1216;22196;-83
2021/10/17 10:18:58;;;;;;;0.20;0.20;;;;;;;16.53;37.10;98931.50;115437;1215;137970;-83
2021/10/17 10:21:24;;;;;;;0.30;0.30;;;;;;;16.60;37.21;98931.77;115414;1217;137389;-86
2021/10/17 10:23:53;;;;;;;0.20;0.20;;;;;;;16.81;37.38;98928.40;115401;1217;138471;-81
2021/10/17 10:26:22;;;;;;;0.30;0.30;;;;;;;17.03;37.04;98925.39;115427;1216;137806;-83
2021/10/17 10:28:48;;;;;;;0.20;0.20;;;;;;;17.16;37.02;98919.46;115576;1212;22244;-83
2021/10/17 10:31:46;;;;;;;0.20;0.20;;;;;;;17.27;37.26;98916.92;115480;1202;137176;-83
2021/10/17 10:34:33;;;;;;;0.30;0.30;;;;;;;17.52;36.77;98913.98;115526;1213;137188;-83
2021/10/17 10:37:16;;;;;;;0.20;0.20;;;;;;;17.59;36.11;98913.73;115385;1216;138327;-83
2021/10/17 10:40:03;;;;;;;0.30;0.30;;;;;;;17.58;36.28;98911.23;115508;1216;137503;-82
2021/10/17 10:42:43;;;;;;;0.20;0.20;;;;;;;17.68;36.04;98904.52;115504;1212;137447;-82
2021/10/17 10:45:22;;;;;;;0.30;0.30;;;;;;;17.86;35.47;98901.19;115473;1201;137440;-82
2021/10/17 10:48:08;;;;;;;0.30;0.30;;;;;;;18.04;34.82;98900.55;115451;1214;137347;-82
2021/10/17 10:50:36;;;;;;;0.30;0.30;;;;;;;18.21;34.34;98896.42;115496;1209;138270;-84
2021/10/17 10:53:02;;;;;;;0.30;0.30;;;;;;;18.28;34.79;98897.30;115506;1212;138146;-82
2021/10/17 10:55:48;;;;;;;0.30;0.30;;;;;;;18.27;34.79;98899.31;115571;1216;22346;-82
2021/10/17 10:58:21;;;;;;;0.30;0.30;;;;;;;18.44;34.63;98893.61;115485;1212;137209;-83
2021/10/17 11:00:46;;;;;;;0.40;0.40;;;;;;;18.64;34.59;98891.58;115465;1212;137905;-82
2021/10/17 11:03:14;;;;;;;0.20;0.20;;;;;;;18.82;33.87;98891.74;115441;1211;137646;-82
2021/10/17 11:05:40;;;;;;;0.40;0.40;;;;;;;18.92;33.76;98895.03;115459;1212;137638;-82
2021/10/17 11:08:14;;;;;;;0.30;0.30;;;;;;;18.95;33.61;98895.52;115514;1213;137611;-82
2021/10/17 11:10:41;;;;;;;0.30;0.30;;;;;;;19.02;33.26;98889.29;115666;1215;22275;-83
2021/10/17 11:13:10;;;;;;;0.30;0.30;;;;;;;19.09;33.52;98886.58;115473;1214;137462;-82
2021/10/17 11:15:40;;;;;;;0.20;0.20;;;;;;;19.07;33.02;98884.20;115468;1216;137659;-82
2021/10/17 11:18:11;;;;;;;0.30;0.30;;;;;;;19.13;32.99;98881.44;115486;1212;137371;-82
2021/10/17 11:20:55;;;;;;;0.30;0.30;;;;;;;19.31;32.82;98882.58;115497;1213;137825;-82
2021/10/17 11:23:29;;;;;;;0.30;0.30;;;;;;;19.46;32.89;98871.15;115541;1216;137667;-82
2021/10/17 11:25:58;;;;;;;0.30;0.30;;;;;;;19.75;32.94;98875.86;115591;1212;22330;-81
2021/10/17 11:28:26;;;;;;;0.40;0.40;;;;;;;19.90;32.21;98873.44;115608;1215;22407;-82
2021/10/17 11:31:05;;;;;;;0.40;0.40;;;;;;;19.96;31.88;98872.80;115481;1215;137221;-82
2021/10/17 11:33:31;;;;;;;0.20;0.20;;;;;;;20.02;31.72;98868.63;115477;1216;137536;-82
2021/10/17 11:35:58;;;;;;;0.30;0.30;;;;;;;20.11;32.38;98863.39;115458;1213;138465;-82
2021/10/17 11:38:24;;;;;;;0.30;0.30;;;;;;;20.35;31.79;98869.80;115493;1209;137889;-82
2021/10/17 11:40:49;;;;;;;0.40;0.40;;;;;;;20.48;31.15;98867.87;115617;1212;22295;-83